• Join FlightAware (Why Join?)
  • Login
  • US Flag 
04:04PM EDT


 

Airport Tracker/Info


-or-


 

Live Flight TrackerFlight Track Log ✈ UAL5829 ✈ 15-Apr-2013 ✈ KORF - KORD

Flight Track Log - Related Links

Times and Time Zones

All times are in EDT time to prevent confusion due to time zone crossing. See the UAL5829 flight status page for this flight to view local times or setup timezone preferences in your user account.

Time Position Orientation Groundspeed Altitude Reporting Facility
EDT Latitude Longitude Course Direction KTS MPH feet Rate Location/Type
02:10PM 36.9078 -76.1894 35° Northeast 152 175 600  Level Washington Center
02:11PM 36.9286 -76.1714 35° Northeast 175 201 1,500 1,560 Climbing Washington Center
02:12PM 36.9786 -76.2158 325° Northwest 256 295 3,400 1,920 Climbing Washington Center
02:13PM 36.9822 -76.3069 273° West 296 341 5,600 2,220 Climbing Washington Center
02:14PM 36.9878 -76.4031 274° West 286 329 7,900 2,340 Climbing Washington Center
02:15PM 36.9975 -76.4994 277° West 286 329 10,300 2,160 Climbing Washington Center
02:16PM 37.0053 -76.5933 276° West 286 329 12,300 1,500 Climbing Washington Center
02:17PM 37.0147 -76.6972 277° West 286 329 13,300 840 Climbing Washington Center
02:18PM 37.0239 -76.8119 276° West 310 357 14,000 840 Climbing Washington Center
02:19PM 37.0372 -76.9319 278° West 337 388 15,000 1,200 Climbing Washington Center
02:20PM 37.0483 -77.0517 277° West 350 403 16,400 1,440 Climbing Washington Center
02:21PM 37.0658 -77.1667 281° West 350 403 17,900 1,620 Climbing Washington Center
02:22PM 37.0872 -77.2764 284° West 345 397 19,700 1,920 Climbing Washington Center
02:23PM 37.1044 -77.3836 281° West 323 372 21,800 1,560 Climbing Washington Center
02:24PM 37.1217 -77.4856 282° West 311 358 22,900 1,020 Climbing Washington Center
02:25PM 37.1428 -77.5956 284° West 311 358 23,900 540 Climbing Washington Center
02:26PM 37.1617 -77.7106 282° West 322 371 24,000  Climbing Washington Center
02:27PM 37.1928 -77.8342 288° West 340 391 24,000 240 Level Washington Center
02:28PM 37.2556 -77.9428 306° West 364 419 24,500 780 Climbing Washington Center
02:29PM 37.3158 -78.0492 305° West 375 432 25,600 1,080 Climbing Washington Center
02:30PM 37.3764 -78.1531 306° West 375 432 26,700 1,020 Climbing Washington Center
02:31PM 37.4306 -78.2464 306° West 375 432 27,700 600 Climbing Washington Center
02:32PM 37.4867 -78.3478 305° West 364 419 28,000 120 Climbing Washington Center
02:33PM 37.5447 -78.4547 304° West 364 419 28,000  Level Washington Center
02:34PM 37.6147 -78.5781 306° West 374 430 28,000  Level Washington Center
02:35PM 37.6744 -78.6878 305° West 379 436 28,100 600 Climbing Washington Center
02:36PM 37.7361 -78.8008 305° West 385 443 29,300 900 Climbing Washington Center
02:37PM 37.7936 -78.9083 304° West 380 437 30,000 420 Climbing Washington Center
02:38PM 37.8494 -79.0053 306° West 380 437 30,200 720 Climbing Washington Center
02:39PM 37.9067 -79.1133 304° West 380 437 31,500 1,260 Climbing Washington Center
02:40PM 37.9728 -79.2111 311° West 380 437 32,800 1,200 Climbing Washington Center
02:41PM 38.0444 -79.3175 311° West 368 423 33,900 960 Climbing Washington Center
02:42PM 38.1061 -79.4156 309° West 358 412 34,800 900 Climbing Washington Center
02:43PM 38.1697 -79.5114 310° West 358 412 35,700 600 Climbing Washington Center
02:44PM 38.2311 -79.6069 309° West 358 412 36,000 120 Climbing Washington Center
02:45PM 38.2928 -79.6978 311° West 358 412 36,000  Level Washington Center
02:46PM 38.3603 -79.7994 310° West 363 418 36,000  Level Washington Center
02:47PM 38.4253 -79.9039 308° West 368 423 36,000  Level Washington Center
02:48PM 38.5003 -80.0222 309° West 374 430 36,000  Level Washington Center
02:49PM 38.5692 -80.1272 310° West 380 437 36,000  Level Washington Center
02:50PM 38.6383 -80.2325 310° West 386 444 36,000  Level Washington Center
02:51PM 38.6736 -80.2836 311° West 388 447 36,000  Level Indianapolis Center
02:52PM 38.7433 -80.3900 310° West 389 448 36,000  Level Indianapolis Center
02:53PM 38.8094 -80.4958 309° West 383 441 36,000  Level Indianapolis Center
02:54PM 38.8850 -80.6292 306° West 386 444 36,000  Level Indianapolis Center
02:55PM 38.9431 -80.7444 303° West 385 443 36,000  Level Indianapolis Center
02:56PM 39.0003 -80.8597 303° West 385 443 36,000  Level Indianapolis Center
02:57PM 39.0561 -80.9758 302° West 384 442 36,000  Level Indianapolis Center
02:58PM 39.1136 -81.0928 302° West 389 448 36,000  Level Indianapolis Center
02:59PM 39.1708 -81.2089 302° West 388 447 36,000  Level Indianapolis Center
03:00PM 39.2386 -81.3503 302° West 388 447 36,000  Level Indianapolis Center
03:01PM 39.2944 -81.4672 302° West 385 443 36,000  Level Indianapolis Center
03:02PM 39.3508 -81.5842 302° West 385 443 36,000  Level Indianapolis Center
03:03PM 39.4067 -81.7011 302° West 384 442 36,000  Level Indianapolis Center
03:04PM 39.4625 -81.8183 302° West 383 441 36,000  Level Indianapolis Center
03:05PM 39.5183 -81.9358 302° West 385 443 36,000  Level Indianapolis Center
03:06PM 39.5736 -82.0522 302° West 382 440 36,000  Level Indianapolis Center
03:07PM 39.6408 -82.1969 301° West 381 438 36,000  Level Indianapolis Center
03:08PM 39.6972 -82.3161 302° West 384 442 36,000  Level Indianapolis Center
03:09PM 39.7531 -82.4347 302° West 382 440 36,000  Level Indianapolis Center
03:10PM 39.8083 -82.5547 301° West 384 442 36,000  Level Indianapolis Center
03:11PM 39.8639 -82.6731 301° West 381 438 36,000  Level Indianapolis Center
03:12PM 39.9183 -82.7939 300° West 384 442 36,000  Level Indianapolis Center
03:13PM 39.9739 -82.9122 302° West 382 440 36,000  Level Indianapolis Center
03:14PM 40.0358 -83.0486 301° West 375 432 36,000  Level Indianapolis Center
03:15PM 40.0894 -83.1669 301° West 377 434 36,000  Level Indianapolis Center
03:16PM 40.1450 -83.2878 301° West 387 445 36,000  Level Indianapolis Center
03:17PM 40.1986 -83.4067 301° West 380 437 36,000  Level Indianapolis Center
03:18PM 40.2508 -83.5231 300° West 370 426 36,000  Level Indianapolis Center
03:19PM 40.2847 -83.6458 290° West 361 415 36,000  Level Indianapolis Center
03:21PM 40.2753 -83.7758 265° West 358 412 36,000  Level Indianapolis Center
03:22PM 40.2622 -83.9317 264° West 367 422 36,000  Level Indianapolis Center
03:23PM 40.2497 -84.0664 263° West 370 426 36,000  Level Indianapolis Center
03:24PM 40.2411 -84.2000 265° West 368 423 36,000 -300 Level Indianapolis Center
03:25PM 40.2964 -84.3119 303° West 368 423 35,400 -780 Descending Indianapolis Center
03:26PM 40.3717 -84.4083 316° Northwest 375 432 34,400 -720 Descending Indianapolis Center
03:27PM 40.4469 -84.5031 316° Northwest 373 429 34,000 -240 Descending Indianapolis Center
03:28PM 40.5211 -84.5983 316° Northwest 370 426 34,000  Level Indianapolis Center
03:29PM 40.5983 -84.6969 316° Northwest 381 438 34,000  Level Indianapolis Center
03:30PM 40.6572 -84.7733 315° West 383 441 34,000  Level Chicago Center
03:31PM 40.7447 -84.8936 314° West 380 437 34,000  Level Chicago Center
03:32PM 40.8008 -85.0108 302° West 377 434 34,000  Level Chicago Center
03:33PM 40.8558 -85.1283 302° West 376 433 34,000 -60 Level Chicago Center
03:34PM 40.9125 -85.2458 303° West 377 434 33,900 -660 Descending Chicago Center
03:35PM 40.9672 -85.3642 302° West 377 434 32,700 -1,320 Descending Chicago Center
03:36PM 41.0219 -85.4789 302° West 371 427 31,200 -1,620 Descending Chicago Center
03:37PM 41.0778 -85.5950 303° West 372 428 29,500 -1,620 Descending Chicago Center
03:38PM 41.1353 -85.7183 302° West 387 445 28,000 -1,740 Descending Chicago Center
03:39PM 41.2047 -85.8661 302° West 392 451 26,000 -1,500 Descending Chicago Center
03:40PM 41.2622 -85.9903 302° West 391 450 25,000 -540 Descending Chicago Center
03:41PM 41.3006 -86.1275 290° West 404 465 25,000 -1,320 Level Chicago Center
03:42PM 41.3467 -86.2569 295° West 388 447 22,400 -2,940 Descending Chicago Center
03:43PM 41.3919 -86.3808 296° West 376 433 19,000 -3,300 Descending Chicago Center
03:44PM 41.4458 -86.4911 303° West 363 418 15,600 -2,760 Descending Chicago Center
03:45PM 41.5158 -86.5931 313° West 368 423 13,400 -1,620 Descending Chicago Center
03:46PM 41.5850 -86.6894 314° West 364 419 12,300 -720 Descending Chicago Center
03:47PM 41.6636 -86.7869 317° Northwest 348 400 12,000 -180 Descending Chicago Center
03:48PM 41.7650 -86.8089 351° North 370 426 12,000  Level Chicago Center
03:49PM 41.8642 -86.8331 350° North 367 422 12,000 -300 Level Chicago Center
03:50PM 41.9253 -86.9283 311° West 343 395 11,500 -1,020 Descending Chicago Center
03:51PM 41.9717 -87.0653 295° West 337 388 10,000 -780 Descending Chicago Center
03:52PM 41.9825 -87.1811 277° West 315 362 10,000 -420 Level Chicago Center
03:53PM 41.9839 -87.2750 271° West 256 295 9,200 -840 Descending Chicago Center
03:54PM 41.9817 -87.3561 268° West 225 259 8,300 -960 Descending Chicago Center
03:55PM 41.9833 -87.4000 273° West 212 244 7,800 -1,020 Descending Chicago TRACON
03:56PM 41.9833 -87.4667 270° West 210 242 6,900 -1,020 Descending Chicago TRACON
03:57PM 41.9833 -87.5333 270° West 174 200 5,900 -960 Descending Chicago TRACON
03:58PM 41.9833 -87.6000 270° West 158 182 5,000 -900 Descending Chicago TRACON
03:59PM 41.9833 -87.6667 270° West 166 191 4,100 -960 Descending Chicago TRACON
04:00PM 41.9833 -87.7167 270° West 175 201 3,100 -1,020 Descending Chicago TRACON
04:01PM 41.9833 -87.7833 270° West 173 199 2,100 -900 Descending Chicago TRACON
04:02PM 41.9833 -87.8500 270° West 140 161 1,300 -840 Descending Chicago TRACON
04:05PM 41.9667 -87.9000 270° West  Level FlightAware Approximate